createdAt,value
2023-05-19T00:00:27.693Z,243.13
2023-05-19T00:01:27.748Z,250.00
2023-05-19T00:02:27.842Z,246.71
2023-05-19T00:03:27.858Z,245.27
2023-05-19T00:04:27.874Z,240.82
2023-05-19T00:05:27.979Z,243.21
2023-05-19T00:06:28.005Z,240.11
2023-05-19T00:07:28.048Z,244.89
2023-05-19T00:08:28.095Z,239.27
2023-05-19T00:09:28.130Z,243.98
2023-05-19T00:10:28.182Z,245.16
2023-05-19T00:11:28.219Z,245.95
2023-05-19T00:12:28.297Z,243.42
2023-05-19T00:13:28.325Z,244.98
2023-05-19T00:14:28.376Z,248.95
2023-05-19T00:15:28.420Z,246.94
2023-05-19T00:16:28.547Z,250.43
2023-05-19T00:17:28.543Z,248.95
2023-05-19T00:18:28.557Z,240.84
2023-05-19T00:19:28.678Z,247.54
2023-05-19T00:20:28.670Z,248.53
2023-05-19T00:21:28.708Z,243.91
2023-05-19T00:22:28.733Z,246.75
2023-05-19T00:23:28.759Z,239.72
2023-05-19T00:24:28.833Z,239.75
2023-05-19T00:25:28.857Z,238.22
2023-05-19T00:26:28.902Z,247.29
2023-05-19T00:27:28.974Z,246.72
2023-05-19T00:28:28.998Z,249.48
2023-05-19T00:29:29.041Z,237.98
2023-05-19T00:30:29.178Z,245.32
2023-05-19T00:31:29.161Z,238.34
2023-05-19T00:32:29.243Z,240.67
2023-05-19T00:33:29.223Z,236.93
2023-05-19T00:34:29.265Z,236.51
2023-05-19T00:35:29.290Z,239.92
2023-05-19T00:36:29.332Z,242.52
2023-05-19T00:37:29.409Z,239.68
2023-05-19T00:38:29.418Z,236.30
2023-05-19T00:39:29.447Z,236.69
2023-05-19T00:40:29.579Z,246.86
2023-05-19T00:41:29.544Z,239.48
2023-05-19T00:42:29.526Z,244.62
2023-05-19T00:43:29.578Z,248.34
2023-05-19T00:44:29.614Z,243.76
2023-05-19T00:45:29.647Z,247.05
2023-05-19T00:46:29.718Z,250.00
2023-05-19T00:47:29.856Z,238.99
2023-05-19T00:48:29.767Z,233.61
2023-05-19T00:49:29.779Z,243.97
2023-05-19T00:50:30.136Z,235.80
2023-05-19T00:51:29.848Z,242.82
2023-05-19T00:52:29.911Z,249.80
2023-05-19T00:53:29.964Z,249.27
2023-05-19T00:54:30.000Z,243.92
2023-05-19T00:55:30.065Z,248.85
2023-05-19T00:56:30.114Z,247.14
2023-05-19T00:57:30.151Z,250.00
2023-05-19T00:58:30.222Z,247.46
2023-05-19T00:59:30.236Z,247.66
2023-05-19T01:00:30.481Z,242.07
2023-05-19T01:01:30.364Z,246.15
2023-05-19T01:02:30.449Z,244.91
2023-05-19T01:03:30.507Z,243.09
2023-05-19T01:04:30.413Z,244.61
2023-05-19T01:05:30.449Z,245.22
2023-05-19T01:06:30.497Z,245.14
2023-05-19T01:07:30.541Z,240.07
2023-05-19T01:08:30.572Z,244.46
2023-05-19T01:09:30.610Z,246.29
2023-05-19T01:10:30.852Z,247.38
2023-05-19T01:11:30.713Z,244.38
2023-05-19T01:12:30.730Z,240.26
2023-05-19T01:13:30.772Z,237.71
2023-05-19T01:14:30.795Z,233.35
2023-05-19T01:15:30.865Z,242.66
2023-05-19T01:16:31.002Z,243.93
2023-05-19T01:17:30.931Z,240.31
2023-05-19T01:18:30.947Z,249.95
2023-05-19T01:19:30.973Z,243.72
2023-05-19T01:20:31.240Z,246.73
2023-05-19T01:21:31.063Z,246.04
2023-05-19T01:22:31.093Z,248.68
2023-05-19T01:23:31.137Z,245.58
2023-05-19T01:24:31.148Z,246.18
2023-05-19T01:25:31.216Z,247.73
2023-05-19T01:26:31.271Z,246.58
2023-05-19T01:27:31.303Z,249.95
2023-05-19T01:28:31.344Z,242.37
2023-05-19T01:29:31.378Z,243.29
2023-05-19T01:30:31.571Z,245.45
2023-05-19T01:31:31.523Z,248.35
2023-05-19T01:32:31.507Z,246.34
2023-05-19T01:33:31.553Z,246.35
2023-05-19T01:34:31.580Z,246.10
2023-05-19T01:35:31.614Z,239.83
2023-05-19T01:36:31.646Z,244.47
2023-05-19T01:37:31.675Z,247.35
2023-05-19T01:38:31.705Z,249.39
2023-05-19T01:39:31.745Z,245.49
2023-05-19T01:40:32.024Z,241.59
2023-05-19T01:41:31.819Z,243.71
2023-05-19T01:42:31.851Z,243.17
2023-05-19T01:43:31.905Z,246.61
2023-05-19T01:44:31.947Z,248.23
2023-05-19T01:45:32.015Z,244.08
2023-05-19T01:46:32.132Z,243.32
2023-05-19T01:47:32.079Z,245.97
2023-05-19T01:48:32.095Z,241.84
2023-05-19T01:49:32.151Z,241.87
2023-05-19T01:50:32.426Z,249.80
2023-05-19T01:51:32.236Z,246.10
2023-05-19T01:52:32.271Z,241.99
2023-05-19T01:53:32.295Z,246.54
2023-05-19T01:54:32.357Z,250.00
2023-05-19T01:55:32.412Z,250.00
2023-05-19T01:56:32.471Z,249.63
2023-05-19T01:57:32.495Z,250.00
2023-05-19T01:58:32.488Z,246.79
2023-05-19T01:59:32.498Z,244.27
2023-05-19T02:00:32.609Z,245.47
2023-05-19T02:01:32.567Z,242.39
2023-05-19T02:02:32.571Z,240.19
2023-05-19T02:03:32.576Z,240.32
2023-05-19T02:04:32.682Z,240.93
2023-05-19T02:05:32.650Z,241.02
2023-05-19T02:06:32.680Z,240.04
2023-05-19T02:07:32.747Z,239.34
2023-05-19T02:08:32.761Z,238.41
2023-05-19T02:09:32.771Z,238.01
2023-05-19T02:10:33.016Z,239.83
2023-05-19T02:11:32.840Z,240.07
2023-05-19T02:12:32.863Z,242.53
2023-05-19T02:13:32.916Z,243.45
2023-05-19T02:14:32.930Z,240.23
2023-05-19T02:15:32.993Z,242.40
2023-05-19T02:16:33.027Z,242.44
2023-05-19T02:17:33.112Z,239.63
2023-05-19T02:18:33.084Z,240.36
2023-05-19T02:19:33.110Z,243.02
2023-05-19T02:20:33.396Z,242.17
2023-05-19T02:21:33.163Z,243.63
2023-05-19T02:22:33.171Z,242.80
2023-05-19T02:23:33.213Z,239.80
2023-05-19T02:24:33.250Z,239.47
2023-05-19T02:25:33.255Z,239.60
2023-05-19T02:26:33.314Z,239.68
2023-05-19T02:27:33.310Z,242.27
2023-05-19T02:28:33.367Z,244.46
2023-05-19T02:29:33.385Z,244.05
2023-05-19T02:30:33.578Z,242.97
2023-05-19T02:31:33.480Z,243.99
2023-05-19T02:32:33.579Z,245.05
2023-05-19T02:33:33.511Z,239.49
2023-05-19T02:34:33.529Z,241.16
2023-05-19T02:35:33.595Z,243.01
2023-05-19T02:36:33.623Z,245.37
2023-05-19T02:37:33.630Z,242.89
2023-05-19T02:38:33.664Z,243.77
2023-05-19T02:39:33.690Z,245.91
2023-05-19T02:40:33.944Z,245.20
2023-05-19T02:41:33.772Z,241.85
2023-05-19T02:42:33.811Z,245.90
2023-05-19T02:43:33.854Z,241.93
2023-05-19T02:44:33.894Z,243.95
2023-05-19T02:45:33.973Z,244.48
2023-05-19T02:46:34.074Z,246.35
2023-05-19T02:47:36.769Z,243.22
2023-05-19T02:48:33.979Z,245.62
2023-05-19T02:49:33.972Z,245.06
2023-05-19T02:50:34.089Z,241.19
2023-05-19T02:51:33.965Z,241.05
2023-05-19T02:52:33.981Z,245.13
2023-05-19T02:53:33.965Z,245.87
2023-05-19T02:54:33.944Z,246.18
2023-05-19T02:55:33.944Z,244.45
2023-05-19T02:56:33.923Z,245.19
2023-05-19T02:57:33.910Z,244.10
2023-05-19T02:58:33.915Z,243.43
2023-05-19T02:59:33.912Z,244.84
2023-05-19T03:00:34.060Z,243.45
2023-05-19T03:01:33.942Z,244.35
2023-05-19T03:02:33.946Z,245.03
2023-05-19T03:03:33.894Z,245.35
2023-05-19T03:04:33.857Z,245.38
2023-05-19T03:05:33.876Z,244.51
2023-05-19T03:06:33.866Z,246.66
2023-05-19T03:07:33.859Z,246.51
2023-05-19T03:08:33.852Z,246.50
2023-05-19T03:09:33.824Z,249.74
2023-05-19T03:10:33.992Z,247.75
2023-05-19T03:11:33.824Z,246.67
2023-05-19T03:12:33.821Z,246.15
2023-05-19T03:13:33.793Z,246.23
2023-05-19T03:14:33.790Z,248.63
2023-05-19T03:15:33.797Z,249.11
2023-05-19T03:16:33.887Z,246.29
2023-05-19T03:17:33.943Z,248.67
2023-05-19T03:18:33.773Z,247.54
2023-05-19T03:19:33.763Z,246.83
2023-05-19T03:20:33.990Z,247.97
2023-05-19T03:21:33.747Z,248.13
2023-05-19T03:22:33.749Z,249.60
2023-05-19T03:23:33.736Z,245.67
2023-05-19T03:24:33.736Z,247.04
2023-05-19T03:25:33.714Z,247.91
2023-05-19T03:26:33.705Z,247.69
2023-05-19T03:27:33.711Z,249.45
2023-05-19T03:28:33.699Z,248.66
2023-05-19T03:29:33.696Z,246.29
2023-05-19T03:30:33.821Z,249.56
2023-05-19T03:31:33.669Z,249.45
2023-05-19T03:32:33.720Z,248.96
2023-05-19T03:33:33.703Z,246.74
2023-05-19T03:34:33.648Z,248.30
2023-05-19T03:35:33.636Z,248.02
2023-05-19T03:36:33.652Z,248.96
2023-05-19T03:37:33.630Z,248.33
2023-05-19T03:38:33.635Z,248.51
2023-05-19T03:39:33.626Z,248.68
2023-05-19T03:40:33.820Z,248.00
2023-05-19T03:41:33.655Z,247.91
2023-05-19T03:42:33.807Z,246.18
2023-05-19T03:43:33.702Z,246.16
2023-05-19T03:44:33.731Z,247.40
2023-05-19T03:45:33.831Z,246.59
2023-05-19T03:46:33.810Z,246.26
2023-05-19T03:47:33.856Z,249.78
2023-05-19T03:48:33.871Z,248.51
2023-05-19T03:49:33.890Z,249.23
2023-05-19T03:50:34.134Z,247.22
2023-05-19T03:51:33.938Z,246.86
2023-05-19T03:52:33.966Z,248.42
2023-05-19T03:53:34.007Z,248.62
2023-05-19T03:54:34.045Z,247.73
2023-05-19T03:55:34.103Z,243.58
2023-05-19T03:56:34.185Z,244.78
2023-05-19T03:57:34.227Z,246.86
2023-05-19T03:58:34.247Z,246.57
2023-05-19T03:59:34.303Z,245.11
2023-05-19T04:00:34.854Z,244.93
2023-05-19T04:01:34.367Z,248.06
2023-05-19T04:02:34.496Z,249.05
2023-05-19T04:03:34.508Z,248.11
2023-05-19T04:04:34.563Z,248.10
2023-05-19T04:05:34.572Z,249.05
2023-05-19T04:06:34.574Z,247.06
2023-05-19T04:07:34.643Z,249.33
2023-05-19T04:08:34.684Z,246.90
2023-05-19T04:09:34.711Z,248.65
2023-05-19T04:10:34.777Z,246.24
2023-05-19T04:11:34.773Z,247.44
2023-05-19T04:12:34.825Z,246.90
2023-05-19T04:13:34.819Z,249.14
2023-05-19T04:14:34.873Z,247.28
2023-05-19T04:15:34.981Z,247.34
2023-05-19T04:16:34.945Z,246.07
2023-05-19T04:17:35.141Z,246.67
2023-05-19T04:18:35.013Z,248.26
2023-05-19T04:19:35.080Z,248.90
2023-05-19T04:20:35.121Z,248.12
2023-05-19T04:21:35.248Z,247.08
2023-05-19T04:22:35.240Z,245.86
2023-05-19T04:23:35.247Z,247.19
2023-05-19T04:24:35.298Z,247.12
2023-05-19T04:25:35.342Z,247.28
2023-05-19T04:26:35.395Z,248.13
2023-05-19T04:27:35.414Z,249.82
2023-05-19T04:28:35.441Z,249.56
2023-05-19T04:29:35.528Z,249.33
2023-05-19T04:30:35.635Z,247.23
2023-05-19T04:31:35.678Z,246.20
2023-05-19T04:32:35.679Z,244.53
2023-05-19T04:33:35.716Z,246.98
2023-05-19T04:34:35.761Z,247.95
2023-05-19T04:35:35.812Z,246.67
2023-05-19T04:36:35.941Z,244.53
2023-05-19T04:37:35.922Z,245.92
2023-05-19T04:38:36.002Z,246.72
2023-05-19T04:39:36.041Z,246.58
2023-05-19T04:40:36.115Z,247.21
2023-05-19T04:41:36.167Z,246.66
2023-05-19T04:42:36.219Z,244.48
2023-05-19T04:43:36.311Z,245.80
2023-05-19T04:44:36.359Z,244.24
2023-05-19T04:45:36.427Z,244.44
2023-05-19T04:46:36.514Z,243.47
2023-05-19T04:47:36.574Z,243.21
2023-05-19T04:48:36.591Z,244.85
2023-05-19T04:49:36.660Z,243.95
2023-05-19T04:50:36.700Z,245.52
2023-05-19T04:51:36.857Z,245.16
2023-05-19T04:52:36.802Z,246.37
2023-05-19T04:53:36.855Z,246.18
2023-05-19T04:54:36.875Z,243.93
2023-05-19T04:55:36.928Z,244.59
2023-05-19T04:56:36.960Z,245.10
2023-05-19T04:57:36.988Z,241.97
2023-05-19T04:58:37.003Z,246.13
2023-05-19T04:59:37.052Z,244.04
2023-05-19T05:00:37.104Z,238.72
2023-05-19T05:01:37.139Z,241.00
2023-05-19T05:02:37.257Z,246.20
2023-05-19T05:03:37.336Z,245.18
2023-05-19T05:04:37.211Z,241.33
2023-05-19T05:05:37.227Z,245.23
2023-05-19T05:06:37.256Z,245.24
2023-05-19T05:07:37.292Z,249.04
2023-05-19T05:08:37.372Z,250.00
2023-05-19T05:09:37.380Z,246.76
2023-05-19T05:10:37.412Z,248.32
2023-05-19T05:11:37.467Z,249.14
2023-05-19T05:12:37.656Z,242.64
2023-05-19T05:13:37.575Z,239.91
2023-05-19T05:14:37.683Z,242.17
2023-05-19T05:15:37.653Z,242.74
2023-05-19T05:16:37.772Z,241.22
2023-05-19T05:17:37.873Z,241.11
2023-05-19T05:18:37.921Z,245.54
2023-05-19T05:19:37.849Z,248.07
2023-05-19T05:20:37.912Z,243.03
2023-05-19T05:21:37.960Z,244.10
2023-05-19T05:22:37.988Z,243.54
2023-05-19T05:23:38.056Z,243.98
2023-05-19T05:24:38.101Z,247.25
2023-05-19T05:25:38.157Z,237.07
2023-05-19T05:26:38.217Z,240.49
2023-05-19T05:27:38.307Z,244.66
2023-05-19T05:28:38.322Z,243.55
2023-05-19T05:29:38.396Z,240.61
2023-05-19T05:30:38.445Z,241.11
2023-05-19T05:31:38.484Z,240.20
2023-05-19T05:32:38.696Z,238.97
2023-05-19T05:33:38.715Z,238.07
2023-05-19T05:34:38.745Z,240.59
2023-05-19T05:35:38.693Z,237.53
2023-05-19T05:36:38.751Z,230.87
2023-05-19T05:37:38.796Z,231.77
2023-05-19T05:38:38.836Z,231.15
2023-05-19T05:39:38.880Z,228.33
2023-05-19T05:40:38.909Z,223.25
2023-05-19T05:41:38.968Z,222.05
2023-05-19T05:42:38.978Z,209.49
2023-05-19T05:43:39.028Z,211.67
2023-05-19T05:44:39.056Z,212.83
2023-05-19T05:45:39.135Z,225.63
2023-05-19T05:46:39.184Z,207.99
2023-05-19T05:47:39.241Z,204.26
2023-05-19T05:48:39.237Z,203.64
2023-05-19T05:49:39.268Z,209.28
2023-05-19T05:50:39.336Z,204.81
2023-05-19T05:51:39.352Z,200.78
2023-05-19T05:52:39.399Z,195.19
2023-05-19T05:53:39.471Z,187.52
2023-05-19T05:54:39.555Z,184.82
2023-05-19T05:55:39.541Z,183.22
2023-05-19T05:56:39.582Z,189.61
2023-05-19T05:57:39.608Z,187.78
2023-05-19T05:58:39.655Z,179.93
2023-05-19T05:59:39.679Z,183.66
2023-05-19T06:00:39.727Z,185.49
2023-05-19T06:01:39.838Z,179.46
2023-05-19T06:02:39.935Z,180.72
2023-05-19T06:03:39.923Z,185.48
2023-05-19T06:04:39.861Z,187.90
2023-05-19T06:05:39.935Z,189.51
2023-05-19T06:06:39.960Z,191.81
2023-05-19T06:07:39.978Z,185.21
2023-05-19T06:08:40.053Z,183.79
2023-05-19T06:09:40.097Z,185.05
2023-05-19T06:10:40.119Z,180.01
2023-05-19T06:11:40.162Z,184.61
2023-05-19T06:12:40.208Z,183.46
2023-05-19T06:13:40.237Z,184.60
2023-05-19T06:14:40.264Z,183.39
2023-05-19T06:15:40.347Z,181.06
2023-05-19T06:16:40.471Z,176.45
2023-05-19T06:17:40.395Z,168.08
2023-05-19T06:18:40.468Z,177.03
2023-05-19T06:19:40.450Z,180.14
2023-05-19T06:20:40.508Z,177.56
2023-05-19T06:21:40.545Z,178.27
2023-05-19T06:22:40.556Z,171.24
2023-05-19T06:23:40.597Z,169.93
2023-05-19T06:24:40.628Z,168.11
2023-05-19T06:25:40.643Z,171.12
2023-05-19T06:26:40.702Z,169.90
2023-05-19T06:27:40.732Z,165.14
2023-05-19T06:28:40.761Z,169.40
2023-05-19T06:29:40.828Z,175.84
2023-05-19T06:30:40.831Z,176.84
2023-05-19T06:31:40.924Z,180.44
2023-05-19T06:32:40.983Z,177.24
2023-05-19T06:33:40.914Z,181.66
2023-05-19T06:34:40.957Z,180.96
2023-05-19T06:35:41.001Z,176.70
2023-05-19T06:36:41.052Z,171.89
2023-05-19T06:37:41.065Z,171.60
2023-05-19T06:38:41.096Z,174.86
2023-05-19T06:39:41.111Z,176.01
2023-05-19T06:40:41.148Z,174.44
2023-05-19T06:41:41.193Z,175.65
2023-05-19T06:42:41.248Z,173.59
2023-05-19T06:43:41.235Z,172.23
2023-05-19T06:44:41.244Z,168.83
2023-05-19T06:45:41.255Z,166.36
2023-05-19T06:46:41.332Z,170.35
2023-05-19T06:47:41.374Z,171.84
2023-05-19T06:48:41.297Z,165.90
2023-05-19T06:49:41.327Z,161.88
2023-05-19T06:50:41.321Z,162.06
2023-05-19T06:51:41.355Z,168.01
2023-05-19T06:52:41.361Z,171.46
2023-05-19T06:53:41.365Z,177.36
2023-05-19T06:54:41.440Z,172.58
2023-05-19T06:55:54.420Z,174.82
2023-05-19T06:56:42.401Z,175.11
2023-05-19T06:57:41.415Z,175.07
2023-05-19T06:58:41.382Z,176.92
2023-05-19T06:59:41.355Z,176.01
2023-05-19T07:00:41.374Z,178.15
2023-05-19T07:01:41.386Z,183.10
2023-05-19T07:02:41.399Z,183.76
2023-05-19T07:03:41.405Z,178.64
2023-05-19T07:04:41.317Z,177.54
2023-05-19T07:05:41.314Z,174.06
2023-05-19T07:06:41.313Z,182.15
2023-05-19T07:07:41.300Z,177.06
2023-05-19T07:08:41.305Z,180.02
2023-05-19T07:09:41.284Z,178.36
2023-05-19T07:10:41.279Z,178.68
2023-05-19T07:11:41.273Z,170.59
2023-05-19T07:12:41.256Z,169.12
2023-05-19T07:13:41.256Z,173.16
2023-05-19T07:14:41.261Z,169.13
2023-05-19T07:15:41.249Z,165.91
2023-05-19T07:16:41.293Z,166.34
2023-05-19T07:17:41.321Z,162.88
2023-05-19T07:18:41.309Z,158.90
2023-05-19T07:19:41.270Z,161.97
2023-05-19T07:20:41.295Z,155.14
2023-05-19T07:21:41.304Z,170.05
2023-05-19T07:22:41.318Z,153.00
2023-05-19T07:23:41.332Z,160.93
2023-05-19T07:24:41.331Z,152.09
2023-05-19T07:25:41.355Z,159.33
2023-05-19T07:26:41.486Z,163.27
2023-05-19T07:27:41.364Z,156.43
2023-05-19T07:28:41.858Z,157.41
2023-05-19T07:29:41.386Z,155.38
2023-05-19T07:30:41.396Z,150.05
2023-05-19T07:31:41.456Z,145.27
2023-05-19T07:32:41.446Z,136.72
2023-05-19T07:33:41.460Z,136.64
2023-05-19T07:34:41.450Z,141.20
2023-05-19T07:35:41.432Z,132.91
2023-05-19T07:36:41.438Z,128.94
2023-05-19T07:37:41.456Z,138.14
2023-05-19T07:38:41.508Z,140.21
2023-05-19T07:39:41.466Z,136.69
2023-05-19T07:40:41.465Z,136.77
2023-05-19T07:41:41.475Z,136.84
2023-05-19T07:42:41.552Z,135.97
2023-05-19T07:43:41.467Z,134.41
2023-05-19T07:44:41.453Z,141.21
2023-05-19T07:45:41.505Z,137.96
2023-05-19T07:46:41.460Z,140.05
2023-05-19T07:47:41.495Z,137.25
2023-05-19T07:48:41.486Z,134.67
2023-05-19T07:49:41.463Z,144.85
2023-05-19T07:50:41.465Z,137.84
2023-05-19T07:51:41.435Z,137.11
2023-05-19T07:52:41.457Z,146.30
2023-05-19T07:53:41.527Z,145.14
2023-05-19T07:54:41.515Z,137.53
2023-05-19T07:55:41.556Z,137.93
2023-05-19T07:56:41.621Z,133.72
2023-05-19T07:57:41.682Z,131.93
2023-05-19T07:58:41.826Z,126.75
2023-05-19T07:59:41.747Z,137.38
2023-05-19T08:00:41.797Z,139.51
2023-05-19T08:01:41.855Z,126.92
2023-05-19T08:02:41.988Z,116.14
2023-05-19T08:03:42.058Z,160.81
2023-05-19T08:04:42.071Z,140.24
2023-05-19T08:05:42.079Z,150.21
2023-05-19T08:06:42.120Z,150.68
2023-05-19T08:07:42.183Z,141.54
2023-05-19T08:08:42.242Z,122.52
2023-05-19T08:09:42.300Z,107.57
2023-05-19T08:10:42.336Z,103.75
2023-05-19T08:11:42.391Z,108.12
2023-05-19T08:12:42.432Z,117.94
2023-05-19T08:13:42.481Z,106.53
2023-05-19T08:14:42.524Z,132.27
2023-05-19T08:15:42.595Z,141.89
2023-05-19T08:16:42.581Z,161.26
2023-05-19T08:17:42.647Z,166.67
2023-05-19T08:18:42.706Z,165.73
2023-05-19T08:19:42.730Z,171.93
2023-05-19T08:20:42.730Z,168.10
2023-05-19T08:21:42.769Z,162.98
2023-05-19T08:22:42.811Z,160.27
2023-05-19T08:23:42.839Z,164.60
2023-05-19T08:24:42.863Z,173.95
2023-05-19T08:25:42.926Z,170.74
2023-05-19T08:26:42.979Z,164.18
2023-05-19T08:27:43.024Z,156.12
2023-05-19T08:28:43.094Z,151.25
2023-05-19T08:29:43.147Z,148.11
2023-05-19T08:30:43.162Z,146.56
2023-05-19T08:31:43.258Z,140.04
2023-05-19T08:32:43.209Z,150.64
2023-05-19T08:33:43.189Z,147.76
2023-05-19T08:34:43.211Z,141.54
2023-05-19T08:35:43.218Z,136.06
2023-05-19T08:36:43.232Z,152.75
2023-05-19T08:37:43.226Z,150.44
2023-05-19T08:38:43.231Z,149.76
2023-05-19T08:39:43.235Z,154.85
2023-05-19T08:40:43.247Z,152.38
2023-05-19T08:41:43.234Z,147.79
2023-05-19T08:42:43.224Z,146.06
2023-05-19T08:43:43.219Z,144.31
2023-05-19T08:44:43.238Z,154.04
2023-05-19T08:45:43.232Z,149.83
2023-05-19T08:46:43.392Z,155.25
2023-05-19T08:47:43.262Z,149.88
2023-05-19T08:48:43.224Z,149.89
2023-05-19T08:49:43.226Z,157.03
2023-05-19T08:50:43.244Z,160.32
2023-05-19T08:51:43.244Z,160.03
2023-05-19T08:52:44.100Z,154.73
2023-05-19T08:53:43.243Z,159.62
2023-05-19T08:54:43.235Z,160.64
2023-05-19T08:55:43.262Z,162.37
2023-05-19T08:56:43.239Z,159.03
2023-05-19T08:57:43.251Z,165.57
2023-05-19T08:58:43.273Z,162.34
2023-05-19T08:59:43.281Z,162.79
2023-05-19T09:00:43.303Z,160.31
2023-05-19T09:01:43.353Z,158.62
2023-05-19T09:02:50.680Z,158.03
2023-05-19T09:03:44.356Z,155.47
2023-05-19T09:04:43.341Z,153.83
2023-05-19T09:05:43.322Z,145.41
2023-05-19T09:06:43.275Z,134.19
2023-05-19T09:07:43.282Z,131.92
2023-05-19T09:08:43.241Z,146.59
2023-05-19T09:09:43.263Z,133.02
2023-05-19T09:10:43.257Z,136.85
2023-05-19T09:11:43.236Z,130.86
2023-05-19T09:12:43.237Z,135.35
2023-05-19T09:13:43.278Z,149.36
2023-05-19T09:14:43.349Z,167.67
2023-05-19T09:15:43.387Z,180.10
2023-05-19T09:16:43.484Z,196.43
2023-05-19T09:17:43.487Z,190.78
2023-05-19T09:18:43.567Z,191.49
2023-05-19T09:19:43.597Z,195.88
2023-05-19T09:20:43.618Z,178.15
2023-05-19T09:21:44.683Z,169.53
2023-05-19T09:22:43.693Z,172.05
2023-05-19T09:23:43.744Z,176.79
2023-05-19T09:24:43.777Z,167.86
2023-05-19T09:25:43.818Z,174.06
2023-05-19T09:26:43.888Z,168.16
2023-05-19T09:27:43.904Z,177.37
2023-05-19T09:28:43.938Z,170.15
2023-05-19T09:29:43.987Z,159.31
2023-05-19T09:30:44.004Z,163.73
2023-05-19T09:31:44.109Z,160.74
2023-05-19T09:32:44.134Z,146.41
2023-05-19T09:33:45.988Z,150.11
2023-05-19T09:34:44.169Z,160.00
2023-05-19T09:35:44.209Z,146.40
2023-05-19T09:36:44.268Z,138.05
2023-05-19T09:37:44.279Z,134.46
2023-05-19T09:38:44.301Z,133.69
2023-05-19T09:39:44.362Z,140.09
2023-05-19T09:40:44.369Z,135.15
2023-05-19T09:41:44.422Z,137.26
2023-05-19T09:42:44.517Z,151.19
2023-05-19T09:43:44.520Z,159.51
2023-05-19T09:44:44.520Z,158.29
2023-05-19T09:45:44.573Z,147.94
2023-05-19T09:46:44.759Z,134.48
2023-05-19T09:47:44.685Z,140.34
2023-05-19T09:48:44.662Z,147.71
2023-05-19T09:49:44.665Z,150.20
2023-05-19T09:50:44.702Z,142.33
2023-05-19T09:51:44.746Z,156.26
2023-05-19T09:52:44.772Z,137.96
2023-05-19T09:53:44.851Z,139.79
2023-05-19T09:54:44.856Z,138.17
2023-05-19T09:55:44.924Z,142.07
2023-05-19T09:56:44.984Z,159.68
2023-05-19T09:57:45.019Z,142.94
2023-05-19T09:58:45.110Z,144.77
2023-05-19T09:59:45.167Z,138.10
2023-05-19T10:00:45.211Z,125.23
2023-05-19T10:01:45.306Z,134.15
2023-05-19T10:02:45.351Z,134.06
2023-05-19T10:03:45.319Z,135.26
2023-05-19T10:04:45.386Z,133.41
2023-05-19T10:05:45.332Z,129.53
2023-05-19T10:06:45.347Z,123.03
2023-05-19T10:07:45.365Z,139.67
2023-05-19T10:08:45.373Z,139.68
2023-05-19T10:09:45.405Z,131.35
2023-05-19T10:10:45.413Z,129.84
2023-05-19T10:11:45.415Z,117.49
2023-05-19T10:12:45.425Z,122.92
2023-05-19T10:13:45.422Z,123.48
2023-05-19T10:14:45.442Z,124.57
2023-05-19T10:15:57.327Z,124.87
2023-05-19T10:16:46.496Z,125.19
2023-05-19T10:17:45.461Z,124.62
2023-05-19T10:18:45.453Z,126.47
2023-05-19T10:19:45.406Z,125.65
2023-05-19T10:20:45.393Z,132.21
2023-05-19T10:21:45.413Z,129.44
2023-05-19T10:22:45.399Z,123.78
2023-05-19T10:23:45.390Z,127.76
2023-05-19T10:24:45.370Z,129.80
2023-05-19T10:25:45.374Z,125.98
2023-05-19T10:26:45.374Z,120.40
2023-05-19T10:27:45.350Z,123.88
2023-05-19T10:28:45.332Z,126.76
2023-05-19T10:29:45.327Z,121.79
2023-05-19T10:30:45.312Z,119.16
2023-05-19T10:31:45.362Z,110.83
2023-05-19T10:32:45.354Z,113.62
2023-05-19T10:33:45.316Z,114.42
2023-05-19T10:34:45.296Z,115.87
2023-05-19T10:35:47.204Z,109.85
2023-05-19T10:36:45.291Z,105.08
2023-05-19T10:37:45.259Z,100.36
2023-05-19T10:38:45.262Z,102.78
2023-05-19T10:39:45.272Z,96.74
2023-05-19T10:40:45.339Z,103.31
2023-05-19T10:41:46.872Z,96.63
2023-05-19T10:42:45.378Z,109.00
2023-05-19T10:43:45.442Z,100.41
2023-05-19T10:44:45.490Z,109.11
2023-05-19T10:45:45.547Z,108.81
2023-05-19T10:46:45.661Z,117.63
2023-05-19T10:47:45.677Z,119.50
2023-05-19T10:48:45.786Z,132.50
2023-05-19T10:49:45.772Z,126.21
2023-05-19T10:50:45.851Z,119.05
2023-05-19T10:51:45.974Z,125.72
2023-05-19T10:52:45.964Z,123.18
2023-05-19T10:53:46.009Z,114.57
2023-05-19T10:54:46.073Z,118.24
2023-05-19T10:55:46.139Z,100.13
2023-05-19T10:56:46.211Z,102.99
2023-05-19T10:57:46.256Z,115.71
2023-05-19T10:58:46.290Z,109.13
2023-05-19T10:59:46.345Z,128.90
2023-05-19T11:00:46.393Z,125.90
2023-05-19T11:01:46.470Z,128.45
2023-05-19T11:02:46.521Z,123.22
2023-05-19T11:03:46.554Z,112.18
2023-05-19T11:04:48.319Z,126.54
2023-05-19T11:05:46.577Z,104.39
2023-05-19T11:06:46.588Z,110.10
2023-05-19T11:07:46.556Z,121.06
2023-05-19T11:08:46.571Z,123.43
2023-05-19T11:09:46.541Z,102.40
2023-05-19T11:10:46.698Z,98.00
2023-05-19T11:11:46.542Z,110.97
2023-05-19T11:12:46.525Z,108.06
2023-05-19T11:13:46.559Z,95.82
2023-05-19T11:14:46.568Z,105.65
2023-05-19T11:15:46.510Z,103.84
2023-05-19T11:16:46.585Z,105.30
2023-05-19T11:17:46.573Z,92.03
2023-05-19T11:18:46.593Z,100.27
2023-05-19T11:19:46.465Z,104.89
2023-05-19T11:20:46.519Z,94.29
2023-05-19T11:21:46.487Z,72.59
2023-05-19T11:22:46.435Z,80.76
2023-05-19T11:23:47.281Z,85.90
2023-05-19T11:24:46.429Z,80.88
2023-05-19T11:25:46.411Z,90.44
2023-05-19T11:26:46.413Z,89.09
2023-05-19T11:27:46.420Z,86.20
2023-05-19T11:28:46.392Z,103.08
2023-05-19T11:29:46.424Z,92.36
2023-05-19T11:30:46.401Z,111.86
2023-05-19T11:31:46.418Z,106.00
2023-05-19T11:32:46.389Z,97.28
2023-05-19T11:33:46.374Z,102.76
2023-05-19T11:34:46.370Z,107.19
2023-05-19T11:35:46.336Z,110.75
2023-05-19T11:36:46.385Z,104.71
2023-05-19T11:37:46.323Z,107.61
2023-05-19T11:38:46.314Z,110.50
2023-05-19T11:39:46.346Z,109.35
2023-05-19T11:40:46.313Z,101.24
2023-05-19T11:41:46.316Z,101.70
2023-05-19T11:42:46.319Z,103.58
2023-05-19T11:43:46.333Z,100.63
2023-05-19T11:44:46.313Z,97.81
2023-05-19T11:45:46.317Z,98.78
2023-05-19T11:46:46.423Z,99.18
2023-05-19T11:48:01.400Z,105.66
2023-05-19T11:48:47.261Z,105.24
2023-05-19T11:49:46.240Z,101.14
2023-05-19T11:50:46.249Z,100.22
2023-05-19T11:51:46.250Z,99.42
2023-05-19T11:52:46.305Z,94.79
2023-05-19T11:53:46.203Z,92.87
2023-05-19T11:54:46.212Z,85.20
2023-05-19T11:55:46.469Z,98.02
2023-05-19T11:56:46.183Z,93.72
2023-05-19T11:57:56.081Z,84.81
2023-05-19T11:58:47.270Z,85.00
2023-05-19T11:59:46.190Z,85.00
2023-05-19T12:00:46.362Z,85.51
2023-05-19T12:01:46.150Z,88.47
2023-05-19T12:02:46.329Z,77.39
2023-05-19T12:03:46.297Z,74.67
2023-05-19T12:04:46.234Z,72.38
2023-05-19T12:05:47.202Z,76.46
2023-05-19T12:06:46.277Z,65.14
2023-05-19T12:07:46.122Z,63.20
2023-05-19T12:08:46.110Z,66.97
2023-05-19T12:09:46.141Z,58.47
2023-05-19T12:10:46.209Z,63.06
2023-05-19T12:11:46.261Z,59.40
2023-05-19T12:12:46.315Z,68.56
2023-05-19T12:13:46.386Z,61.49
2023-05-19T12:14:46.412Z,58.77
2023-05-19T12:15:46.522Z,70.07
2023-05-19T12:16:46.644Z,70.19
2023-05-19T12:17:46.713Z,69.68
2023-05-19T12:18:46.723Z,69.14
2023-05-19T12:19:46.723Z,76.95
2023-05-19T12:20:46.763Z,67.22
2023-05-19T12:21:46.842Z,80.47
2023-05-19T12:22:46.880Z,121.05
2023-05-19T12:23:46.979Z,129.83
2023-05-19T12:24:47.002Z,115.04
2023-05-19T12:25:47.069Z,111.93
2023-05-19T12:26:47.106Z,125.99
2023-05-19T12:27:47.172Z,119.05
2023-05-19T12:28:47.207Z,129.21
2023-05-19T12:29:47.280Z,124.92
2023-05-19T12:30:47.333Z,105.73